Fruitvale, CO

2:32 AM MST on February 07, 2016 (GMT -0700)
Clifton Area - SE of Patterson and 31.5 Rd | | Change Station
CLOSE
Current Station
Personal Weather Station
Location: Grand Junction, CO
Elevation: 4737 ft
Nearby Weather Stations

Elev 4737 ft 39.09 °N, 108.47 °W | Updated 2 minutes ago

Clear
Clear
16.4 °F
Feels Like 16 °F
N
0.0
Wind Variable Wind from North
Gusts 0.0 mph

Today
High -- | Low -- °F
--% Chance of Precip.
Yesterday
High -- | Low -- °F
Precip. -- in
Pressure 30.65 in
Visibility 8.0 miles
Clouds Clear
Windchill 16 °F
Dew Point 14 °F
Humidity 88%
Rainfall 0.00 in
Snow Depth Not available.
7:15 AM 5:41 PM
Waning Crescent, 2% visible
METAR KGJT 070853Z AUTO 00000KT 8SM CLR M10/M11 A3049 RMK AO2 SLP378 T11001111 58001 $
Pressure 30.65 in
Visibility 8.0 miles
Clouds Clear
Windchill 16 °F
Dew Point 14 °F
Humidity 88%
Rainfall 0.00 in
Snow Depth Not available.
7:15 AM 5:41 PM
Waning Crescent, 2% visible
METAR KGJT 070853Z AUTO 00000KT 8SM CLR M10/M11 A3049 RMK AO2 SLP378 T11001111 58001 $

10-Day Weather Forecast

Almanac

Astronomy

Feb. 07, 2016 Rise Set
Actual Time
Civil Twilight
Nautical Twilight
Astronomical Twilight
Moon
Length of Visible Light
Length of Day
Tomorrow will be .
, % of the Moon is Illuminated

Today's Extremes

State Highs State Lows

Community

WunderPhotos

Upload Photos

1,891,171 photos uploaded!

WunderBlog® & News

Nearby

Air Quality

  Air Quality AQ Index Pollutant
Not available.

Snow Depth

Station Depth Elevation

Earthquake Activity

City Distance Mag. Time & Date
Minimum magnitude displayed is 2.5.

Coastal Water Temperatures

Place Temperature

Stations

Nearby Weather Stations

Station Location Temp. Windchill Dew Point Humidity Wind Precip. Elev Updated Type
                   

Watches & Warnings

There are currently no watches in effect.